sensor_id;sensor_type;location;lat;lon;timestamp;P1;durP1;ratioP1;P2;durP2;ratioP2
77111;SDS011;66064;50.226;14.344;2023-05-07T00:00:26;14.45;;;12.50;;
77111;SDS011;66064;50.226;14.344;2023-05-07T00:03:13;15.55;;;11.50;;
77111;SDS011;66064;50.226;14.344;2023-05-07T00:05:39;14.35;;;12.90;;
77111;SDS011;66064;50.226;14.344;2023-05-07T00:08:05;12.57;;;11.10;;
77111;SDS011;66064;50.226;14.344;2023-05-07T00:10:31;12.50;;;10.98;;
77111;SDS011;66064;50.226;14.344;2023-05-07T00:12:57;13.65;;;11.13;;
77111;SDS011;66064;50.226;14.344;2023-05-07T00:15:23;13.90;;;12.43;;
77111;SDS011;66064;50.226;14.344;2023-05-07T00:17:49;14.85;;;12.43;;
77111;SDS011;66064;50.226;14.344;2023-05-07T00:20:15;13.13;;;11.43;;
77111;SDS011;66064;50.226;14.344;2023-05-07T00:22:41;13.90;;;10.70;;
77111;SDS011;66064;50.226;14.344;2023-05-07T00:25:07;15.05;;;11.32;;
77111;SDS011;66064;50.226;14.344;2023-05-07T00:27:33;13.25;;;11.82;;
77111;SDS011;66064;50.226;14.344;2023-05-07T00:29:59;11.88;;;10.52;;
77111;SDS011;66064;50.226;14.344;2023-05-07T00:32:25;16.42;;;11.80;;
77111;SDS011;66064;50.226;14.344;2023-05-07T00:34:51;13.13;;;11.30;;
77111;SDS011;66064;50.226;14.344;2023-05-07T00:37:17;15.82;;;12.52;;
77111;SDS011;66064;50.226;14.344;2023-05-07T00:39:43;13.55;;;10.55;;
77111;SDS011;66064;50.226;14.344;2023-05-07T00:42:09;12.27;;;11.10;;
77111;SDS011;66064;50.226;14.344;2023-05-07T00:44:35;15.70;;;12.15;;
77111;SDS011;66064;50.226;14.344;2023-05-07T00:47:01;18.17;;;12.73;;
77111;SDS011;66064;50.226;14.344;2023-05-07T00:49:35;16.70;;;13.10;;
77111;SDS011;66064;50.226;14.344;2023-05-07T00:52:06;12.57;;;11.40;;
77111;SDS011;66064;50.226;14.344;2023-05-07T00:54:33;14.85;;;11.88;;
77111;SDS011;66064;50.226;14.344;2023-05-07T00:57:01;13.77;;;11.60;;
77111;SDS011;66064;50.226;14.344;2023-05-07T00:59:28;11.98;;;10.45;;
77111;SDS011;66064;50.226;14.344;2023-05-07T01:01:54;12.70;;;11.05;;
77111;SDS011;66064;50.226;14.344;2023-05-07T01:04:19;14.63;;;13.10;;
77111;SDS011;66064;50.226;14.344;2023-05-07T01:06:46;16.48;;;14.60;;
77111;SDS011;66064;50.226;14.344;2023-05-07T01:09:12;12.55;;;10.98;;
77111;SDS011;66064;50.226;14.344;2023-05-07T01:11:38;13.98;;;12.02;;
77111;SDS011;66064;50.226;14.344;2023-05-07T01:14:05;11.73;;;10.55;;
77111;SDS011;66064;50.226;14.344;2023-05-07T01:16:32;16.05;;;11.32;;
77111;SDS011;66064;50.226;14.344;2023-05-07T01:18:58;10.93;;;9.93;;
77111;SDS011;66064;50.226;14.344;2023-05-07T01:21:25;11.63;;;8.90;;
77111;SDS011;66064;50.226;14.344;2023-05-07T01:23:52;10.00;;;8.85;;
77111;SDS011;66064;50.226;14.344;2023-05-07T01:26:20;13.93;;;9.35;;
77111;SDS011;66064;50.226;14.344;2023-05-07T01:28:47;9.95;;;8.35;;
77111;SDS011;66064;50.226;14.344;2023-05-07T01:31:13;10.60;;;9.50;;
77111;SDS011;66064;50.226;14.344;2023-05-07T01:33:40;15.45;;;10.80;;
77111;SDS011;66064;50.226;14.344;2023-05-07T01:36:08;10.25;;;8.48;;
77111;SDS011;66064;50.226;14.344;2023-05-07T01:38:36;13.50;;;11.55;;
77111;SDS011;66064;50.226;14.344;2023-05-07T01:41:04;13.30;;;9.52;;
77111;SDS011;66064;50.226;14.344;2023-05-07T01:43:31;10.05;;;9.00;;
77111;SDS011;66064;50.226;14.344;2023-05-07T01:45:57;13.07;;;9.38;;
77111;SDS011;66064;50.226;14.344;2023-05-07T01:48:25;10.20;;;9.45;;
77111;SDS011;66064;50.226;14.344;2023-05-07T01:50:52;9.55;;;7.93;;
77111;SDS011;66064;50.226;14.344;2023-05-07T01:53:18;8.90;;;7.68;;
77111;SDS011;66064;50.226;14.344;2023-05-07T01:55:44;13.57;;;9.82;;
77111;SDS011;66064;50.226;14.344;2023-05-07T01:58:10;12.05;;;10.38;;
77111;SDS011;66064;50.226;14.344;2023-05-07T02:00:36;9.57;;;7.88;;
77111;SDS011;66064;50.226;14.344;2023-05-07T02:03:02;11.45;;;8.20;;
77111;SDS011;66064;50.226;14.344;2023-05-07T02:05:28;11.15;;;10.05;;
77111;SDS011;66064;50.226;14.344;2023-05-07T02:07:54;10.30;;;9.35;;
77111;SDS011;66064;50.226;14.344;2023-05-07T02:10:20;10.50;;;7.90;;
77111;SDS011;66064;50.226;14.344;2023-05-07T02:12:46;16.20;;;9.18;;
77111;SDS011;66064;50.226;14.344;2023-05-07T02:15:12;8.57;;;7.63;;
77111;SDS011;66064;50.226;14.344;2023-05-07T02:20:26;13.98;;;8.85;;
77111;SDS011;66064;50.226;14.344;2023-05-07T02:22:52;8.50;;;6.88;;
77111;SDS011;66064;50.226;14.344;2023-05-07T02:25:18;12.05;;;9.05;;
77111;SDS011;66064;50.226;14.344;2023-05-07T02:27:44;8.45;;;7.63;;
77111;SDS011;66064;50.226;14.344;2023-05-07T02:30:10;10.77;;;8.52;;
77111;SDS011;66064;50.226;14.344;2023-05-07T02:32:36;11.68;;;7.63;;
77111;SDS011;66064;50.226;14.344;2023-05-07T02:35:03;12.13;;;10.95;;
77111;SDS011;66064;50.226;14.344;2023-05-07T02:37:30;13.90;;;9.55;;
77111;SDS011;66064;50.226;14.344;2023-05-07T02:39:56;9.25;;;8.45;;
77111;SDS011;66064;50.226;14.344;2023-05-07T02:42:22;9.77;;;7.95;;
77111;SDS011;66064;50.226;14.344;2023-05-07T02:44:48;10.55;;;8.73;;
77111;SDS011;66064;50.226;14.344;2023-05-07T02:47:14;9.50;;;8.52;;
77111;SDS011;66064;50.226;14.344;2023-05-07T02:49:41;7.82;;;7.03;;
77111;SDS011;66064;50.226;14.344;2023-05-07T02:52:06;9.57;;;7.90;;
77111;SDS011;66064;50.226;14.344;2023-05-07T02:54:33;11.55;;;7.75;;
77111;SDS011;66064;50.226;14.344;2023-05-07T02:56:59;9.65;;;7.43;;
77111;SDS011;66064;50.226;14.344;2023-05-07T02:59:26;14.52;;;9.82;;
77111;SDS011;66064;50.226;14.344;2023-05-07T03:01:52;10.60;;;9.55;;
77111;SDS011;66064;50.226;14.344;2023-05-07T03:04:18;10.15;;;8.50;;
77111;SDS011;66064;50.226;14.344;2023-05-07T03:06:44;15.63;;;9.13;;
77111;SDS011;66064;50.226;14.344;2023-05-07T03:09:10;10.23;;;9.30;;
77111;SDS011;66064;50.226;14.344;2023-05-07T03:11:36;9.32;;;8.02;;
77111;SDS011;66064;50.226;14.344;2023-05-07T03:14:02;9.00;;;7.47;;
77111;SDS011;66064;50.226;14.344;2023-05-07T03:16:28;12.98;;;8.70;;
77111;SDS011;66064;50.226;14.344;2023-05-07T03:18:54;12.95;;;8.60;;
77111;SDS011;66064;50.226;14.344;2023-05-07T03:21:20;12.48;;;9.10;;
77111;SDS011;66064;50.226;14.344;2023-05-07T03:23:46;11.02;;;9.40;;
77111;SDS011;66064;50.226;14.344;2023-05-07T03:26:12;8.82;;;7.63;;
77111;SDS011;66064;50.226;14.344;2023-05-07T03:28:38;10.57;;;7.78;;
77111;SDS011;66064;50.226;14.344;2023-05-07T03:31:04;9.23;;;8.23;;
77111;SDS011;66064;50.226;14.344;2023-05-07T03:33:32;9.18;;;8.13;;
77111;SDS011;66064;50.226;14.344;2023-05-07T03:35:59;10.27;;;7.45;;
77111;SDS011;66064;50.226;14.344;2023-05-07T03:38:25;8.75;;;7.68;;
77111;SDS011;66064;50.226;14.344;2023-05-07T03:40:51;11.55;;;9.13;;
77111;SDS011;66064;50.226;14.344;2023-05-07T03:43:17;10.27;;;9.07;;
77111;SDS011;66064;50.226;14.344;2023-05-07T03:45:43;14.18;;;8.38;;
77111;SDS011;66064;50.226;14.344;2023-05-07T03:48:09;9.82;;;8.02;;
77111;SDS011;66064;50.226;14.344;2023-05-07T03:50:34;10.65;;;6.97;;
77111;SDS011;66064;50.226;14.344;2023-05-07T03:53:01;10.55;;;9.55;;
77111;SDS011;66064;50.226;14.344;2023-05-07T03:55:26;8.70;;;7.90;;
77111;SDS011;66064;50.226;14.344;2023-05-07T03:57:52;8.77;;;7.88;;
77111;SDS011;66064;50.226;14.344;2023-05-07T04:00:18;8.90;;;7.95;;
77111;SDS011;66064;50.226;14.344;2023-05-07T04:02:45;8.60;;;7.63;;
77111;SDS011;66064;50.226;14.344;2023-05-07T04:05:11;9.00;;;8.10;;
77111;SDS011;66064;50.226;14.344;2023-05-07T04:07:39;7.97;;;7.18;;
77111;SDS011;66064;50.226;14.344;2023-05-07T04:10:05;9.52;;;7.45;;
77111;SDS011;66064;50.226;14.344;2023-05-07T04:12:31;8.15;;;7.35;;
77111;SDS011;66064;50.226;14.344;2023-05-07T04:14:57;9.73;;;8.57;;
77111;SDS011;66064;50.226;14.344;2023-05-07T04:17:23;9.13;;;8.30;;
77111;SDS011;66064;50.226;14.344;2023-05-07T04:19:49;11.05;;;8.32;;
77111;SDS011;66064;50.226;14.344;2023-05-07T04:22:15;9.55;;;8.15;;
77111;SDS011;66064;50.226;14.344;2023-05-07T04:24:41;10.65;;;7.93;;
77111;SDS011;66064;50.226;14.344;2023-05-07T04:27:07;9.80;;;8.85;;
77111;SDS011;66064;50.226;14.344;2023-05-07T04:29:32;8.35;;;7.60;;
77111;SDS011;66064;50.226;14.344;2023-05-07T04:31:59;8.93;;;7.97;;
77111;SDS011;66064;50.226;14.344;2023-05-07T04:34:24;8.60;;;7.60;;
77111;SDS011;66064;50.226;14.344;2023-05-07T04:36:51;10.00;;;6.55;;
77111;SDS011;66064;50.226;14.344;2023-05-07T04:39:16;7.78;;;7.07;;
77111;SDS011;66064;50.226;14.344;2023-05-07T04:41:43;7.10;;;6.15;;
77111;SDS011;66064;50.226;14.344;2023-05-07T04:44:08;9.02;;;7.70;;
77111;SDS011;66064;50.226;14.344;2023-05-07T04:46:34;8.50;;;7.65;;
77111;SDS011;66064;50.226;14.344;2023-05-07T04:49:00;8.10;;;7.25;;
77111;SDS011;66064;50.226;14.344;2023-05-07T04:51:26;9.88;;;7.38;;
77111;SDS011;66064;50.226;14.344;2023-05-07T04:53:53;9.90;;;8.20;;
77111;SDS011;66064;50.226;14.344;2023-05-07T04:56:19;8.23;;;7.43;;
77111;SDS011;66064;50.226;14.344;2023-05-07T04:58:45;8.55;;;7.75;;
77111;SDS011;66064;50.226;14.344;2023-05-07T05:01:11;9.75;;;6.82;;
77111;SDS011;66064;50.226;14.344;2023-05-07T05:03:37;8.27;;;7.57;;
77111;SDS011;66064;50.226;14.344;2023-05-07T05:06:05;8.45;;;7.00;;
77111;SDS011;66064;50.226;14.344;2023-05-07T05:08:31;8.50;;;7.50;;
77111;SDS011;66064;50.226;14.344;2023-05-07T05:10:57;7.10;;;6.35;;
77111;SDS011;66064;50.226;14.344;2023-05-07T05:13:23;6.63;;;5.25;;
77111;SDS011;66064;50.226;14.344;2023-05-07T05:15:49;5.75;;;5.22;;
77111;SDS011;66064;50.226;14.344;2023-05-07T05:18:15;7.78;;;6.95;;
77111;SDS011;66064;50.226;14.344;2023-05-07T05:20:41;8.68;;;8.02;;
77111;SDS011;66064;50.226;14.344;2023-05-07T05:23:07;6.63;;;6.13;;
77111;SDS011;66064;50.226;14.344;2023-05-07T05:25:33;8.32;;;6.30;;
77111;SDS011;66064;50.226;14.344;2023-05-07T05:27:59;7.32;;;5.93;;
77111;SDS011;66064;50.226;14.344;2023-05-07T05:30:25;7.28;;;6.57;;
77111;SDS011;66064;50.226;14.344;2023-05-07T05:32:51;7.68;;;6.97;;
77111;SDS011;66064;50.226;14.344;2023-05-07T05:35:17;10.00;;;9.25;;
77111;SDS011;66064;50.226;14.344;2023-05-07T05:37:43;6.45;;;5.20;;
77111;SDS011;66064;50.226;14.344;2023-05-07T05:40:09;6.95;;;5.90;;
77111;SDS011;66064;50.226;14.344;2023-05-07T05:42:35;6.90;;;6.20;;
77111;SDS011;66064;50.226;14.344;2023-05-07T05:45:02;7.38;;;6.47;;
77111;SDS011;66064;50.226;14.344;2023-05-07T05:47:27;7.07;;;6.38;;
77111;SDS011;66064;50.226;14.344;2023-05-07T05:49:54;6.05;;;5.47;;
77111;SDS011;66064;50.226;14.344;2023-05-07T05:52:19;6.85;;;6.15;;
77111;SDS011;66064;50.226;14.344;2023-05-07T05:54:45;7.13;;;6.47;;
77111;SDS011;66064;50.226;14.344;2023-05-07T05:57:11;7.03;;;6.25;;
77111;SDS011;66064;50.226;14.344;2023-05-07T05:59:37;7.53;;;6.47;;
77111;SDS011;66064;50.226;14.344;2023-05-07T06:02:03;8.68;;;6.65;;
77111;SDS011;66064;50.226;14.344;2023-05-07T06:04:29;6.88;;;5.80;;
77111;SDS011;66064;50.226;14.344;2023-05-07T06:06:55;6.10;;;5.50;;
77111;SDS011;66064;50.226;14.344;2023-05-07T06:09:22;5.85;;;5.10;;
77111;SDS011;66064;50.226;14.344;2023-05-07T06:11:48;6.97;;;6.10;;
77111;SDS011;66064;50.226;14.344;2023-05-07T06:14:14;7.03;;;6.40;;
77111;SDS011;66064;50.226;14.344;2023-05-07T06:16:40;6.63;;;5.88;;
77111;SDS011;66064;50.226;14.344;2023-05-07T06:19:06;8.93;;;7.28;;
77111;SDS011;66064;50.226;14.344;2023-05-07T06:21:31;6.18;;;5.68;;
77111;SDS011;66064;50.226;14.344;2023-05-07T06:23:57;6.10;;;5.50;;
77111;SDS011;66064;50.226;14.344;2023-05-07T06:26:23;8.70;;;6.40;;
77111;SDS011;66064;50.226;14.344;2023-05-07T06:28:49;5.78;;;5.25;;
77111;SDS011;66064;50.226;14.344;2023-05-07T06:31:16;6.88;;;6.07;;
77111;SDS011;66064;50.226;14.344;2023-05-07T06:33:46;6.35;;;5.32;;
77111;SDS011;66064;50.226;14.344;2023-05-07T06:36:12;6.18;;;4.90;;
77111;SDS011;66064;50.226;14.344;2023-05-07T06:38:38;5.32;;;4.82;;
77111;SDS011;66064;50.226;14.344;2023-05-07T06:41:05;6.55;;;6.03;;
77111;SDS011;66064;50.226;14.344;2023-05-07T06:43:32;5.15;;;4.68;;
77111;SDS011;66064;50.226;14.344;2023-05-07T06:45:58;7.53;;;6.93;;
77111;SDS011;66064;50.226;14.344;2023-05-07T06:48:24;7.88;;;6.78;;
77111;SDS011;66064;50.226;14.344;2023-05-07T06:50:50;6.10;;;5.35;;
77111;SDS011;66064;50.226;14.344;2023-05-07T06:53:16;5.78;;;5.18;;
77111;SDS011;66064;50.226;14.344;2023-05-07T06:55:42;7.25;;;6.55;;
77111;SDS011;66064;50.226;14.344;2023-05-07T06:58:08;8.25;;;7.43;;
77111;SDS011;66064;50.226;14.344;2023-05-07T07:00:33;6.72;;;5.95;;
77111;SDS011;66064;50.226;14.344;2023-05-07T07:03:00;6.13;;;5.28;;
77111;SDS011;66064;50.226;14.344;2023-05-07T07:05:26;7.10;;;5.72;;
77111;SDS011;66064;50.226;14.344;2023-05-07T07:07:52;6.95;;;6.25;;
77111;SDS011;66064;50.226;14.344;2023-05-07T07:10:19;7.25;;;6.55;;
77111;SDS011;66064;50.226;14.344;2023-05-07T07:12:45;7.05;;;6.35;;
77111;SDS011;66064;50.226;14.344;2023-05-07T07:15:11;6.18;;;5.15;;
77111;SDS011;66064;50.226;14.344;2023-05-07T07:17:37;6.85;;;6.03;;
77111;SDS011;66064;50.226;14.344;2023-05-07T07:20:03;5.65;;;5.13;;
77111;SDS011;66064;50.226;14.344;2023-05-07T07:22:30;7.80;;;7.13;;
77111;SDS011;66064;50.226;14.344;2023-05-07T07:24:56;6.07;;;5.32;;
77111;SDS011;66064;50.226;14.344;2023-05-07T07:27:22;7.15;;;6.45;;
77111;SDS011;66064;50.226;14.344;2023-05-07T07:29:48;6.88;;;5.78;;
77111;SDS011;66064;50.226;14.344;2023-05-07T07:32:14;6.25;;;5.65;;
77111;SDS011;66064;50.226;14.344;2023-05-07T07:34:40;7.05;;;6.13;;
77111;SDS011;66064;50.226;14.344;2023-05-07T07:37:06;6.13;;;5.53;;
77111;SDS011;66064;50.226;14.344;2023-05-07T07:39:33;6.70;;;6.07;;
77111;SDS011;66064;50.226;14.344;2023-05-07T07:41:59;6.30;;;5.70;;
77111;SDS011;66064;50.226;14.344;2023-05-07T07:44:26;6.30;;;5.45;;
77111;SDS011;66064;50.226;14.344;2023-05-07T07:46:53;5.75;;;4.78;;
77111;SDS011;66064;50.226;14.344;2023-05-07T07:49:19;6.60;;;6.00;;
77111;SDS011;66064;50.226;14.344;2023-05-07T07:51:45;5.80;;;4.68;;
77111;SDS011;66064;50.226;14.344;2023-05-07T07:54:11;5.65;;;5.22;;
77111;SDS011;66064;50.226;14.344;2023-05-07T07:56:37;6.03;;;5.40;;
77111;SDS011;66064;50.226;14.344;2023-05-07T07:59:03;6.53;;;5.93;;
77111;SDS011;66064;50.226;14.344;2023-05-07T08:01:30;6.05;;;5.43;;
77111;SDS011;66064;50.226;14.344;2023-05-07T08:03:56;5.25;;;4.75;;
77111;SDS011;66064;50.226;14.344;2023-05-07T08:06:26;5.55;;;5.15;;
77111;SDS011;66064;50.226;14.344;2023-05-07T08:08:52;5.88;;;5.38;;
77111;SDS011;66064;50.226;14.344;2023-05-07T08:11:18;6.53;;;5.38;;
77111;SDS011;66064;50.226;14.344;2023-05-07T08:13:45;7.00;;;5.53;;
77111;SDS011;66064;50.226;14.344;2023-05-07T08:16:11;5.53;;;4.53;;
77111;SDS011;66064;50.226;14.344;2023-05-07T08:18:37;7.85;;;5.72;;
77111;SDS011;66064;50.226;14.344;2023-05-07T08:21:04;5.40;;;4.88;;
77111;SDS011;66064;50.226;14.344;2023-05-07T08:23:30;6.10;;;5.30;;
77111;SDS011;66064;50.226;14.344;2023-05-07T08:25:56;5.65;;;5.15;;
77111;SDS011;66064;50.226;14.344;2023-05-07T08:28:21;7.22;;;5.05;;
77111;SDS011;66064;50.226;14.344;2023-05-07T08:30:50;5.60;;;5.10;;
77111;SDS011;66064;50.226;14.344;2023-05-07T08:33:16;6.32;;;5.43;;
77111;SDS011;66064;50.226;14.344;2023-05-07T08:35:42;4.65;;;4.25;;
77111;SDS011;66064;50.226;14.344;2023-05-07T08:38:08;7.75;;;7.05;;
77111;SDS011;66064;50.226;14.344;2023-05-07T08:40:36;9.35;;;7.88;;
77111;SDS011;66064;50.226;14.344;2023-05-07T08:43:05;7.63;;;6.00;;
77111;SDS011;66064;50.226;14.344;2023-05-07T08:45:33;6.18;;;5.57;;
77111;SDS011;66064;50.226;14.344;2023-05-07T08:47:59;6.88;;;6.15;;
77111;SDS011;66064;50.226;14.344;2023-05-07T08:50:28;6.93;;;5.90;;
77111;SDS011;66064;50.226;14.344;2023-05-07T08:52:54;5.63;;;5.13;;
77111;SDS011;66064;50.226;14.344;2023-05-07T08:55:22;6.25;;;5.53;;
77111;SDS011;66064;50.226;14.344;2023-05-07T08:57:49;6.90;;;5.85;;
77111;SDS011;66064;50.226;14.344;2023-05-07T09:00:16;6.95;;;6.18;;
77111;SDS011;66064;50.226;14.344;2023-05-07T09:02:41;5.97;;;4.88;;
77111;SDS011;66064;50.226;14.344;2023-05-07T09:05:08;5.78;;;5.07;;
77111;SDS011;66064;50.226;14.344;2023-05-07T09:07:34;7.95;;;7.15;;
77111;SDS011;66064;50.226;14.344;2023-05-07T09:10:03;6.05;;;4.90;;
77111;SDS011;66064;50.226;14.344;2023-05-07T09:12:30;4.60;;;4.10;;
77111;SDS011;66064;50.226;14.344;2023-05-07T09:14:56;5.57;;;4.75;;
77111;SDS011;66064;50.226;14.344;2023-05-07T09:17:22;5.97;;;4.68;;
77111;SDS011;66064;50.226;14.344;2023-05-07T09:19:48;6.65;;;5.10;;
77111;SDS011;66064;50.226;14.344;2023-05-07T09:22:14;5.93;;;4.78;;
77111;SDS011;66064;50.226;14.344;2023-05-07T09:24:40;5.38;;;4.50;;
77111;SDS011;66064;50.226;14.344;2023-05-07T09:27:06;7.38;;;5.57;;
77111;SDS011;66064;50.226;14.344;2023-05-07T09:29:34;5.40;;;4.90;;
77111;SDS011;66064;50.226;14.344;2023-05-07T09:32:03;5.03;;;4.20;;
77111;SDS011;66064;50.226;14.344;2023-05-07T09:34:33;5.25;;;4.75;;
77111;SDS011;66064;50.226;14.344;2023-05-07T09:37:03;6.25;;;4.55;;
77111;SDS011;66064;50.226;14.344;2023-05-07T09:42:06;6.15;;;4.53;;
77111;SDS011;66064;50.226;14.344;2023-05-07T09:44:32;5.43;;;4.43;;
77111;SDS011;66064;50.226;14.344;2023-05-07T09:46:59;4.78;;;3.70;;
77111;SDS011;66064;50.226;14.344;2023-05-07T09:49:28;6.18;;;5.00;;
77111;SDS011;66064;50.226;14.344;2023-05-07T09:51:58;4.85;;;4.38;;
77111;SDS011;66064;50.226;14.344;2023-05-07T09:54:26;6.25;;;5.43;;
77111;SDS011;66064;50.226;14.344;2023-05-07T09:56:55;4.82;;;4.18;;
77111;SDS011;66064;50.226;14.344;2023-05-07T09:59:23;7.82;;;5.30;;
77111;SDS011;66064;50.226;14.344;2023-05-07T10:01:51;6.00;;;4.93;;
77111;SDS011;66064;50.226;14.344;2023-05-07T10:04:19;5.60;;;4.88;;
77111;SDS011;66064;50.226;14.344;2023-05-07T10:06:46;5.85;;;4.88;;
77111;SDS011;66064;50.226;14.344;2023-05-07T10:09:13;7.78;;;5.55;;
77111;SDS011;66064;50.226;14.344;2023-05-07T10:11:40;5.60;;;4.18;;
77111;SDS011;66064;50.226;14.344;2023-05-07T10:14:06;7.72;;;5.65;;
77111;SDS011;66064;50.226;14.344;2023-05-07T10:16:33;6.50;;;5.13;;
77111;SDS011;66064;50.226;14.344;2023-05-07T10:19:05;5.93;;;4.63;;
77111;SDS011;66064;50.226;14.344;2023-05-07T10:21:35;5.72;;;4.40;;
77111;SDS011;66064;50.226;14.344;2023-05-07T10:26:42;5.55;;;5.05;;
77111;SDS011;66064;50.226;14.344;2023-05-07T10:29:15;5.05;;;4.32;;
77111;SDS011;66064;50.226;14.344;2023-05-07T10:34:54;5.28;;;4.30;;
77111;SDS011;66064;50.226;14.344;2023-05-07T10:37:21;6.30;;;5.20;;
77111;SDS011;66064;50.226;14.344;2023-05-07T10:39:49;7.72;;;5.07;;
77111;SDS011;66064;50.226;14.344;2023-05-07T10:42:15;4.78;;;4.28;;
77111;SDS011;66064;50.226;14.344;2023-05-07T10:44:42;5.88;;;4.93;;
77111;SDS011;66064;50.226;14.344;2023-05-07T10:49:35;6.45;;;4.97;;
77111;SDS011;66064;50.226;14.344;2023-05-07T10:52:15;5.43;;;4.63;;
77111;SDS011;66064;50.226;14.344;2023-05-07T10:54:43;6.25;;;4.80;;
77111;SDS011;66064;50.226;14.344;2023-05-07T10:59:57;6.28;;;5.32;;
77111;SDS011;66064;50.226;14.344;2023-05-07T11:02:23;5.63;;;4.63;;
77111;SDS011;66064;50.226;14.344;2023-05-07T11:05:24;6.85;;;4.38;;
77111;SDS011;66064;50.226;14.344;2023-05-07T11:07:55;7.03;;;5.47;;
77111;SDS011;66064;50.226;14.344;2023-05-07T11:10:47;5.20;;;4.70;;
77111;SDS011;66064;50.226;14.344;2023-05-07T11:16:22;9.18;;;4.82;;
77111;SDS011;66064;50.226;14.344;2023-05-07T11:18:53;7.15;;;4.65;;
77111;SDS011;66064;50.226;14.344;2023-05-07T11:21:41;6.05;;;4.65;;
77111;SDS011;66064;50.226;14.344;2023-05-07T11:24:07;6.55;;;4.82;;
77111;SDS011;66064;50.226;14.344;2023-05-07T11:26:47;6.45;;;4.70;;
77111;SDS011;66064;50.226;14.344;2023-05-07T11:29:15;5.80;;;4.60;;
77111;SDS011;66064;50.226;14.344;2023-05-07T11:31:52;7.63;;;5.88;;
77111;SDS011;66064;50.226;14.344;2023-05-07T11:34:23;6.90;;;5.15;;
77111;SDS011;66064;50.226;14.344;2023-05-07T11:36:50;9.32;;;5.32;;
77111;SDS011;66064;50.226;14.344;2023-05-07T11:39:27;7.15;;;6.13;;
77111;SDS011;66064;50.226;14.344;2023-05-07T11:41:54;5.80;;;5.10;;
77111;SDS011;66064;50.226;14.344;2023-05-07T11:44:20;7.28;;;6.20;;
77111;SDS011;66064;50.226;14.344;2023-05-07T11:46:46;7.28;;;5.45;;
77111;SDS011;66064;50.226;14.344;2023-05-07T11:49:13;7.05;;;5.60;;
77111;SDS011;66064;50.226;14.344;2023-05-07T11:51:40;8.20;;;6.32;;
77111;SDS011;66064;50.226;14.344;2023-05-07T11:54:08;8.02;;;5.28;;
77111;SDS011;66064;50.226;14.344;2023-05-07T11:56:37;7.32;;;4.90;;
77111;SDS011;66064;50.226;14.344;2023-05-07T11:59:03;5.80;;;5.22;;
77111;SDS011;66064;50.226;14.344;2023-05-07T12:01:29;5.32;;;4.82;;
77111;SDS011;66064;50.226;14.344;2023-05-07T12:03:55;6.90;;;5.38;;
77111;SDS011;66064;50.226;14.344;2023-05-07T12:06:21;7.70;;;6.75;;
77111;SDS011;66064;50.226;14.344;2023-05-07T12:08:47;5.40;;;4.47;;
77111;SDS011;66064;50.226;14.344;2023-05-07T12:11:14;7.07;;;6.43;;
77111;SDS011;66064;50.226;14.344;2023-05-07T12:13:46;6.88;;;5.85;;
77111;SDS011;66064;50.226;14.344;2023-05-07T12:16:13;5.70;;;5.15;;
77111;SDS011;66064;50.226;14.344;2023-05-07T12:18:39;7.15;;;5.97;;
77111;SDS011;66064;50.226;14.344;2023-05-07T12:21:06;7.43;;;6.03;;
77111;SDS011;66064;50.226;14.344;2023-05-07T12:23:33;7.07;;;5.88;;
77111;SDS011;66064;50.226;14.344;2023-05-07T12:26:00;6.68;;;5.95;;
77111;SDS011;66064;50.226;14.344;2023-05-07T12:28:26;6.85;;;5.32;;
77111;SDS011;66064;50.226;14.344;2023-05-07T12:30:52;6.55;;;5.75;;
77111;SDS011;66064;50.226;14.344;2023-05-07T12:33:22;7.30;;;6.03;;
77111;SDS011;66064;50.226;14.344;2023-05-07T12:35:50;7.28;;;5.82;;
77111;SDS011;66064;50.226;14.344;2023-05-07T12:38:18;5.07;;;4.57;;
77111;SDS011;66064;50.226;14.344;2023-05-07T12:40:45;7.15;;;6.28;;
77111;SDS011;66064;50.226;14.344;2023-05-07T12:43:25;6.57;;;5.35;;
77111;SDS011;66064;50.226;14.344;2023-05-07T12:45:57;8.10;;;5.57;;
77111;SDS011;66064;50.226;14.344;2023-05-07T12:48:29;6.55;;;5.13;;
77111;SDS011;66064;50.226;14.344;2023-05-07T12:50:56;6.43;;;5.38;;
77111;SDS011;66064;50.226;14.344;2023-05-07T12:53:23;5.00;;;4.38;;
77111;SDS011;66064;50.226;14.344;2023-05-07T12:55:52;6.30;;;4.88;;
77111;SDS011;66064;50.226;14.344;2023-05-07T12:58:20;8.02;;;6.32;;
77111;SDS011;66064;50.226;14.344;2023-05-07T13:00:49;5.25;;;3.92;;
77111;SDS011;66064;50.226;14.344;2023-05-07T13:03:29;4.30;;;3.90;;
77111;SDS011;66064;50.226;14.344;2023-05-07T13:05:57;6.53;;;5.85;;
77111;SDS011;66064;50.226;14.344;2023-05-07T13:08:31;5.75;;;5.00;;
77111;SDS011;66064;50.226;14.344;2023-05-07T13:11:03;5.22;;;4.72;;
77111;SDS011;66064;50.226;14.344;2023-05-07T13:13:34;5.63;;;5.07;;
77111;SDS011;66064;50.226;14.344;2023-05-07T13:16:01;9.43;;;6.53;;
77111;SDS011;66064;50.226;14.344;2023-05-07T13:18:32;4.95;;;4.45;;
77111;SDS011;66064;50.226;14.344;2023-05-07T13:20:59;5.38;;;4.85;;
77111;SDS011;66064;50.226;14.344;2023-05-07T13:23:26;5.32;;;4.82;;
77111;SDS011;66064;50.226;14.344;2023-05-07T13:25:53;6.28;;;4.25;;
77111;SDS011;66064;50.226;14.344;2023-05-07T13:28:22;4.90;;;4.43;;
77111;SDS011;66064;50.226;14.344;2023-05-07T13:30:49;7.47;;;4.85;;
77111;SDS011;66064;50.226;14.344;2023-05-07T13:33:17;6.05;;;4.95;;
77111;SDS011;66064;50.226;14.344;2023-05-07T13:35:44;6.18;;;4.95;;
77111;SDS011;66064;50.226;14.344;2023-05-07T13:38:10;4.57;;;4.18;;
77111;SDS011;66064;50.226;14.344;2023-05-07T13:40:36;6.80;;;6.10;;
77111;SDS011;66064;50.226;14.344;2023-05-07T13:43:02;6.75;;;4.20;;
77111;SDS011;66064;50.226;14.344;2023-05-07T13:45:28;5.22;;;4.72;;
77111;SDS011;66064;50.226;14.344;2023-05-07T13:47:55;5.32;;;4.82;;
77111;SDS011;66064;50.226;14.344;2023-05-07T13:50:21;5.40;;;4.88;;
77111;SDS011;66064;50.226;14.344;2023-05-07T13:52:47;4.40;;;4.00;;
77111;SDS011;66064;50.226;14.344;2023-05-07T13:55:20;5.05;;;4.47;;
77111;SDS011;66064;50.226;14.344;2023-05-07T13:57:47;5.53;;;4.97;;
77111;SDS011;66064;50.226;14.344;2023-05-07T14:00:13;5.18;;;4.55;;
77111;SDS011;66064;50.226;14.344;2023-05-07T14:02:40;5.10;;;4.20;;
77111;SDS011;66064;50.226;14.344;2023-05-07T14:05:07;4.85;;;4.45;;
77111;SDS011;66064;50.226;14.344;2023-05-07T14:07:34;6.47;;;5.35;;
77111;SDS011;66064;50.226;14.344;2023-05-07T14:10:01;5.53;;;4.72;;
77111;SDS011;66064;50.226;14.344;2023-05-07T14:12:28;6.07;;;4.88;;
77111;SDS011;66064;50.226;14.344;2023-05-07T14:14:54;9.65;;;6.43;;
77111;SDS011;66064;50.226;14.344;2023-05-07T14:17:20;4.90;;;4.13;;
77111;SDS011;66064;50.226;14.344;2023-05-07T14:19:48;6.47;;;4.40;;
77111;SDS011;66064;50.226;14.344;2023-05-07T14:22:14;4.82;;;4.32;;
77111;SDS011;66064;50.226;14.344;2023-05-07T14:24:41;5.45;;;4.72;;
77111;SDS011;66064;50.226;14.344;2023-05-07T14:27:07;7.22;;;4.88;;
77111;SDS011;66064;50.226;14.344;2023-05-07T14:29:33;5.82;;;4.93;;
77111;SDS011;66064;50.226;14.344;2023-05-07T14:32:00;4.63;;;4.22;;
77111;SDS011;66064;50.226;14.344;2023-05-07T14:34:28;5.20;;;4.70;;
77111;SDS011;66064;50.226;14.344;2023-05-07T14:36:53;7.90;;;6.15;;
77111;SDS011;66064;50.226;14.344;2023-05-07T14:39:21;4.85;;;4.35;;
77111;SDS011;66064;50.226;14.344;2023-05-07T14:41:47;8.38;;;7.57;;
77111;SDS011;66064;50.226;14.344;2023-05-07T14:44:13;8.82;;;8.13;;
77111;SDS011;66064;50.226;14.344;2023-05-07T14:46:39;7.38;;;5.85;;
77111;SDS011;66064;50.226;14.344;2023-05-07T14:49:05;6.70;;;6.00;;